Imbuia, Brazil
Current Conditions -  °F | °C
As of 10:00 PM on Wednesday 26 Nov 2014 (Local Time) from SBFL Reporting Station
Broken Clouds Broken Clouds  
Wind Chill: 73°   Ceiling: 10000
Heat Index: 73°   Visibility: 6mi
Dew Point: 66°   Wind: 9mph
Humidity: 78%   Direction: 170°S
Pressure: 29.85"   Gusts: NA
Location:  27.49°S, 49.42°W
Report Text: SBFL 270000Z 17008KT 9999 FEW015 BKN100 23/19 Q1011
Loading
Personal Weather Stations






























Interactive Weather Map New forecast layout! Learn more

10-Day Weather Forecast

Advertisements
Track Severe Weather on mobile